sensor_id;sensor_type;location;lat;lon;timestamp;pressure;altitude;pressure_sealevel;temperature;humidity
3428;BME280;1727;42.624;23.406;2023-05-11T00:01:35;95118.97;;;11.73;85.16
3428;BME280;1727;42.624;23.406;2023-05-11T00:04:04;95115.75;;;11.39;85.76
3428;BME280;1727;42.624;23.406;2023-05-11T00:06:31;95112.63;;;11.55;87.92
3428;BME280;1727;42.624;23.406;2023-05-11T00:08:57;95119.75;;;11.64;89.14
3428;BME280;1727;42.624;23.406;2023-05-11T00:11:24;95111.88;;;11.64;88.35
3428;BME280;1727;42.624;23.406;2023-05-11T00:13:51;95112.41;;;11.58;87.81
3428;BME280;1727;42.624;23.406;2023-05-11T00:16:17;95120.72;;;11.63;86.54
3428;BME280;1727;42.624;23.406;2023-05-11T00:18:44;95125.78;;;11.55;88.04
3428;BME280;1727;42.624;23.406;2023-05-11T00:21:13;95122.44;;;11.53;88.31
3428;BME280;1727;42.624;23.406;2023-05-11T00:23:40;95134.78;;;11.32;86.49
3428;BME280;1727;42.624;23.406;2023-05-11T00:26:06;95119.34;;;11.38;88.55
3428;BME280;1727;42.624;23.406;2023-05-11T00:28:33;95125.16;;;11.42;89.34
3428;BME280;1727;42.624;23.406;2023-05-11T00:31:00;95133.56;;;11.36;87.68
3428;BME280;1727;42.624;23.406;2023-05-11T00:33:27;95126.69;;;11.24;90.03
3428;BME280;1727;42.624;23.406;2023-05-11T00:35:53;95119.97;;;11.10;89.59
3428;BME280;1727;42.624;23.406;2023-05-11T00:38:21;95113.22;;;10.96;90.23
3428;BME280;1727;42.624;23.406;2023-05-11T00:40:49;95128.16;;;10.96;90.80
3428;BME280;1727;42.624;23.406;2023-05-11T00:43:15;95122.91;;;10.96;91.51
3428;BME280;1727;42.624;23.406;2023-05-11T00:45:42;95135.72;;;10.89;91.41
3428;BME280;1727;42.624;23.406;2023-05-11T00:48:12;95128.22;;;10.84;89.70
3428;BME280;1727;42.624;23.406;2023-05-11T00:50:39;95132.63;;;10.84;90.88
3428;BME280;1727;42.624;23.406;2023-05-11T00:53:06;95125.84;;;10.81;91.02
3428;BME280;1727;42.624;23.406;2023-05-11T00:55:34;95119.50;;;10.84;92.33
3428;BME280;1727;42.624;23.406;2023-05-11T00:58:01;95127.88;;;10.78;89.50
3428;BME280;1727;42.624;23.406;2023-05-11T01:00:29;95131.25;;;10.69;90.83
3428;BME280;1727;42.624;23.406;2023-05-11T01:02:56;95130.25;;;10.81;89.02
3428;BME280;1727;42.624;23.406;2023-05-11T01:05:30;95135.06;;;10.65;89.99
3428;BME280;1727;42.624;23.406;2023-05-11T01:08:03;95125.59;;;10.84;92.09
3428;BME280;1727;42.624;23.406;2023-05-11T01:10:33;95129.94;;;10.95;90.05
3428;BME280;1727;42.624;23.406;2023-05-11T01:13:12;95128.94;;;11.07;91.47
3428;BME280;1727;42.624;23.406;2023-05-11T01:15:46;95127.03;;;11.09;89.03
3428;BME280;1727;42.624;23.406;2023-05-11T01:18:18;95127.88;;;10.78;89.95
3428;BME280;1727;42.624;23.406;2023-05-11T01:24:15;95126.34;;;10.96;90.51
3428;BME280;1727;42.624;23.406;2023-05-11T01:26:58;95129.94;;;10.95;91.03
3428;BME280;1727;42.624;23.406;2023-05-11T01:29:45;95129.25;;;10.93;89.54
3428;BME280;1727;42.624;23.406;2023-05-11T01:32:18;95129.44;;;10.80;91.02
3428;BME280;1727;42.624;23.406;2023-05-11T01:34:46;95130.97;;;10.83;91.14
3428;BME280;1727;42.624;23.406;2023-05-11T01:37:17;95127.25;;;10.85;91.57
3428;BME280;1727;42.624;23.406;2023-05-11T01:39:49;95127.22;;;10.65;89.08
3428;BME280;1727;42.624;23.406;2023-05-11T01:42:19;95127.13;;;10.55;89.55
3428;BME280;1727;42.624;23.406;2023-05-11T01:44:50;95119.13;;;10.57;91.37
3428;BME280;1727;42.624;23.406;2023-05-11T01:47:25;95120.03;;;10.67;92.21
3428;BME280;1727;42.624;23.406;2023-05-11T01:49:54;95126.03;;;10.58;90.54
3428;BME280;1727;42.624;23.406;2023-05-11T01:52:24;95123.16;;;10.61;90.87
3428;BME280;1727;42.624;23.406;2023-05-11T01:54:53;95126.25;;;10.66;90.54
3428;BME280;1727;42.624;23.406;2023-05-11T01:57:22;95131.59;;;10.75;91.54
3428;BME280;1727;42.624;23.406;2023-05-11T01:59:50;95128.41;;;10.72;89.32
3428;BME280;1727;42.624;23.406;2023-05-11T02:02:19;95132.44;;;10.76;88.82
3428;BME280;1727;42.624;23.406;2023-05-11T02:04:46;95128.53;;;10.91;90.74
3428;BME280;1727;42.624;23.406;2023-05-11T02:07:13;95134.75;;;10.90;88.15
3428;BME280;1727;42.624;23.406;2023-05-11T02:09:42;95122.31;;;10.92;88.58
3428;BME280;1727;42.624;23.406;2023-05-11T02:12:10;95129.13;;;10.95;90.04
3428;BME280;1727;42.624;23.406;2023-05-11T02:14:39;95120.16;;;10.97;89.22
3428;BME280;1727;42.624;23.406;2023-05-11T02:17:07;95125.66;;;10.94;87.11
3428;BME280;1727;42.624;23.406;2023-05-11T02:19:37;95120.53;;;10.93;88.78
3428;BME280;1727;42.624;23.406;2023-05-11T02:22:06;95120.34;;;10.84;87.72
3428;BME280;1727;42.624;23.406;2023-05-11T02:24:34;95128.09;;;10.86;88.31
3428;BME280;1727;42.624;23.406;2023-05-11T02:27:02;95120.91;;;10.88;87.83
3428;BME280;1727;42.624;23.406;2023-05-11T02:29:29;95125.47;;;10.86;87.19
3428;BME280;1727;42.624;23.406;2023-05-11T02:31:59;95124.31;;;10.79;85.23
3428;BME280;1727;42.624;23.406;2023-05-11T02:34:28;95122.31;;;10.71;86.66
3428;BME280;1727;42.624;23.406;2023-05-11T02:37:01;95122.47;;;10.59;87.33
3428;BME280;1727;42.624;23.406;2023-05-11T02:39:34;95125.78;;;10.72;86.77
3428;BME280;1727;42.624;23.406;2023-05-11T02:42:13;95123.09;;;10.83;87.02
3428;BME280;1727;42.624;23.406;2023-05-11T02:44:52;95127.78;;;11.00;88.20
3428;BME280;1727;42.624;23.406;2023-05-11T02:47:21;95131.63;;;11.17;88.41
3428;BME280;1727;42.624;23.406;2023-05-11T02:49:54;95129.44;;;11.22;87.65
3428;BME280;1727;42.624;23.406;2023-05-11T02:52:24;95122.41;;;11.23;86.38
3428;BME280;1727;42.624;23.406;2023-05-11T02:54:53;95126.81;;;11.22;86.21
3428;BME280;1727;42.624;23.406;2023-05-11T02:57:20;95122.53;;;11.21;86.68
3428;BME280;1727;42.624;23.406;2023-05-11T02:59:48;95125.88;;;11.23;85.43
3428;BME280;1727;42.624;23.406;2023-05-11T03:02:21;95130.53;;;11.20;85.08
3428;BME280;1727;42.624;23.406;2023-05-11T03:04:48;95124.19;;;11.22;85.51
3428;BME280;1727;42.624;23.406;2023-05-11T03:07:15;95129.41;;;11.12;85.85
3428;BME280;1727;42.624;23.406;2023-05-11T03:09:43;95127.72;;;11.11;84.89
3428;BME280;1727;42.624;23.406;2023-05-11T03:12:10;95121.38;;;11.14;85.34
3428;BME280;1727;42.624;23.406;2023-05-11T03:24:44;95119.72;;;10.60;88.20
3428;BME280;1727;42.624;23.406;2023-05-11T03:27:11;95122.06;;;10.42;88.20
3428;BME280;1727;42.624;23.406;2023-05-11T03:29:38;95126.34;;;10.32;90.10
3428;BME280;1727;42.624;23.406;2023-05-11T03:32:07;95120.88;;;10.24;89.64
3428;BME280;1727;42.624;23.406;2023-05-11T03:34:34;95128.97;;;10.10;89.52
3428;BME280;1727;42.624;23.406;2023-05-11T03:37:02;95116.94;;;10.18;90.26
3428;BME280;1727;42.624;23.406;2023-05-11T03:39:32;95115.41;;;10.05;90.37
3428;BME280;1727;42.624;23.406;2023-05-11T03:42:01;95120.44;;;9.85;92.71
3428;BME280;1727;42.624;23.406;2023-05-11T03:44:30;95129.97;;;9.86;92.33
3428;BME280;1727;42.624;23.406;2023-05-11T03:46:58;95123.50;;;10.02;92.01
3428;BME280;1727;42.624;23.406;2023-05-11T03:49:26;95125.63;;;10.08;91.15
3428;BME280;1727;42.624;23.406;2023-05-11T03:51:54;95128.88;;;10.00;92.02
3428;BME280;1727;42.624;23.406;2023-05-11T03:54:22;95131.97;;;9.83;92.82
3428;BME280;1727;42.624;23.406;2023-05-11T03:56:50;95137.09;;;9.96;92.70
3428;BME280;1727;42.624;23.406;2023-05-11T03:59:18;95137.84;;;9.86;92.99
3428;BME280;1727;42.624;23.406;2023-05-11T04:01:45;95144.59;;;10.00;93.20
3428;BME280;1727;42.624;23.406;2023-05-11T04:04:15;95140.44;;;9.98;93.35
3428;BME280;1727;42.624;23.406;2023-05-11T04:06:42;95141.16;;;10.22;93.84
3428;BME280;1727;42.624;23.406;2023-05-11T04:09:09;95135.53;;;10.15;92.13
3428;BME280;1727;42.624;23.406;2023-05-11T04:11:36;95146.41;;;9.88;92.70
3428;BME280;1727;42.624;23.406;2023-05-11T04:14:03;95143.06;;;9.86;93.83
3428;BME280;1727;42.624;23.406;2023-05-11T04:16:31;95139.94;;;10.04;93.91
3428;BME280;1727;42.624;23.406;2023-05-11T04:18:58;95145.94;;;9.83;93.89
3428;BME280;1727;42.624;23.406;2023-05-11T04:21:24;95145.31;;;9.69;95.27
3428;BME280;1727;42.624;23.406;2023-05-11T04:23:51;95145.56;;;9.88;95.82
3428;BME280;1727;42.624;23.406;2023-05-11T04:26:18;95141.88;;;9.90;94.09
3428;BME280;1727;42.624;23.406;2023-05-11T04:28:45;95150.91;;;9.98;94.00
3428;BME280;1727;42.624;23.406;2023-05-11T04:31:12;95148.66;;;10.15;95.41
3428;BME280;1727;42.624;23.406;2023-05-11T04:33:40;95157.09;;;10.08;94.33
3428;BME280;1727;42.624;23.406;2023-05-11T04:36:07;95154.13;;;10.01;95.96
3428;BME280;1727;42.624;23.406;2023-05-11T04:38:33;95151.38;;;9.80;95.55
3428;BME280;1727;42.624;23.406;2023-05-11T04:41:02;95155.44;;;9.96;95.44
3428;BME280;1727;42.624;23.406;2023-05-11T04:43:29;95158.09;;;9.84;95.95
3428;BME280;1727;42.624;23.406;2023-05-11T04:45:55;95161.31;;;9.88;96.09
3428;BME280;1727;42.624;23.406;2023-05-11T04:48:23;95166.41;;;9.56;97.40
3428;BME280;1727;42.624;23.406;2023-05-11T04:50:53;95155.69;;;9.59;98.16
3428;BME280;1727;42.624;23.406;2023-05-11T04:53:20;95153.78;;;9.72;97.33
3428;BME280;1727;42.624;23.406;2023-05-11T04:55:47;95155.81;;;9.57;96.98
3428;BME280;1727;42.624;23.406;2023-05-11T04:58:14;95158.75;;;9.53;98.36
3428;BME280;1727;42.624;23.406;2023-05-11T05:00:40;95171.53;;;9.69;98.24
3428;BME280;1727;42.624;23.406;2023-05-11T05:03:07;95156.00;;;9.43;98.08
3428;BME280;1727;42.624;23.406;2023-05-11T05:05:34;95164.63;;;9.68;99.23
3428;BME280;1727;42.624;23.406;2023-05-11T05:08:02;95167.38;;;9.88;99.25
3428;BME280;1727;42.624;23.406;2023-05-11T05:10:29;95175.94;;;10.13;100.00
3428;BME280;1727;42.624;23.406;2023-05-11T05:12:56;95156.28;;;10.18;100.00
3428;BME280;1727;42.624;23.406;2023-05-11T05:15:22;95175.59;;;9.84;99.95
3428;BME280;1727;42.624;23.406;2023-05-11T05:17:49;95175.47;;;10.19;100.00
3428;BME280;1727;42.624;23.406;2023-05-11T05:20:16;95171.19;;;10.29;100.00
3428;BME280;1727;42.624;23.406;2023-05-11T05:22:43;95173.41;;;10.11;97.50
3428;BME280;1727;42.624;23.406;2023-05-11T05:25:11;95172.84;;;10.08;98.04
3428;BME280;1727;42.624;23.406;2023-05-11T05:27:38;95183.06;;;10.11;98.31
3428;BME280;1727;42.624;23.406;2023-05-11T05:30:06;95182.38;;;10.09;98.30
3428;BME280;1727;42.624;23.406;2023-05-11T05:32:33;95182.47;;;9.62;100.00
3428;BME280;1727;42.624;23.406;2023-05-11T05:34:59;95178.56;;;9.79;100.00
3428;BME280;1727;42.624;23.406;2023-05-11T05:37:26;95178.44;;;9.92;100.00
3428;BME280;1727;42.624;23.406;2023-05-11T05:39:53;95178.09;;;9.85;100.00
3428;BME280;1727;42.624;23.406;2023-05-11T05:42:21;95175.47;;;9.97;100.00
3428;BME280;1727;42.624;23.406;2023-05-11T05:44:48;95182.00;;;9.80;99.92
3428;BME280;1727;42.624;23.406;2023-05-11T05:47:15;95188.03;;;9.47;100.00
3428;BME280;1727;42.624;23.406;2023-05-11T05:49:42;95191.75;;;9.55;99.47
3428;BME280;1727;42.624;23.406;2023-05-11T05:52:09;95186.72;;;9.52;100.00
3428;BME280;1727;42.624;23.406;2023-05-11T05:54:36;95186.72;;;9.52;100.00
3428;BME280;1727;42.624;23.406;2023-05-11T05:57:03;95186.09;;;9.84;100.00
3428;BME280;1727;42.624;23.406;2023-05-11T05:59:32;95184.28;;;9.96;100.00
3428;BME280;1727;42.624;23.406;2023-05-11T06:01:58;95189.88;;;9.91;100.00
3428;BME280;1727;42.624;23.406;2023-05-11T06:04:25;95200.50;;;9.89;100.00
3428;BME280;1727;42.624;23.406;2023-05-11T06:06:52;95199.03;;;9.63;99.91
3428;BME280;1727;42.624;23.406;2023-05-11T06:09:20;95189.50;;;9.73;100.00
3428;BME280;1727;42.624;23.406;2023-05-11T06:11:46;95191.06;;;10.54;100.00
3428;BME280;1727;42.624;23.406;2023-05-11T06:14:13;95201.78;;;11.05;100.00
3428;BME280;1727;42.624;23.406;2023-05-11T06:16:41;95226.75;;;11.00;96.60
3428;BME280;1727;42.624;23.406;2023-05-11T06:19:08;95215.94;;;10.82;94.62
3428;BME280;1727;42.624;23.406;2023-05-11T06:21:35;95215.00;;;10.72;95.66
3428;BME280;1727;42.624;23.406;2023-05-11T06:24:02;95216.81;;;10.60;98.05
3428;BME280;1727;42.624;23.406;2023-05-11T06:26:29;95221.25;;;10.37;96.79
3428;BME280;1727;42.624;23.406;2023-05-11T06:28:56;95219.25;;;10.41;97.25
3428;BME280;1727;42.624;23.406;2023-05-11T06:31:22;95224.09;;;10.01;97.14
3428;BME280;1727;42.624;23.406;2023-05-11T06:33:50;95230.91;;;10.14;97.84
3428;BME280;1727;42.624;23.406;2023-05-11T06:36:17;95227.91;;;10.19;98.87
3428;BME280;1727;42.624;23.406;2023-05-11T06:38:44;95220.78;;;10.21;100.00
3428;BME280;1727;42.624;23.406;2023-05-11T06:41:11;95224.81;;;10.36;100.00
3428;BME280;1727;42.624;23.406;2023-05-11T06:43:37;95216.00;;;10.37;100.00
3428;BME280;1727;42.624;23.406;2023-05-11T06:46:04;95228.88;;;10.29;98.56
3428;BME280;1727;42.624;23.406;2023-05-11T06:48:31;95225.31;;;10.30;97.86
3428;BME280;1727;42.624;23.406;2023-05-11T06:50:59;95225.53;;;10.38;99.59
3428;BME280;1727;42.624;23.406;2023-05-11T06:53:26;95220.41;;;10.37;98.30
3428;BME280;1727;42.624;23.406;2023-05-11T06:55:53;95227.44;;;10.47;99.36
3428;BME280;1727;42.624;23.406;2023-05-11T07:01:54;95218.00;;;10.56;98.76
3428;BME280;1727;42.624;23.406;2023-05-11T07:04:21;95226.22;;;10.74;99.71
3428;BME280;1727;42.624;23.406;2023-05-11T07:06:49;95222.59;;;10.86;99.72
3428;BME280;1727;42.624;23.406;2023-05-11T07:09:16;95227.38;;;10.81;94.82
3428;BME280;1727;42.624;23.406;2023-05-11T07:11:43;95232.66;;;10.70;93.02
3428;BME280;1727;42.624;23.406;2023-05-11T07:14:10;95220.25;;;10.72;97.85
3428;BME280;1727;42.624;23.406;2023-05-11T07:16:36;95217.72;;;10.81;98.21
3428;BME280;1727;42.624;23.406;2023-05-11T07:19:03;95220.53;;;11.01;100.00
3428;BME280;1727;42.624;23.406;2023-05-11T07:21:30;95215.03;;;11.04;100.00
3428;BME280;1727;42.624;23.406;2023-05-11T07:23:59;95228.53;;;10.99;96.05
3428;BME280;1727;42.624;23.406;2023-05-11T07:26:26;95226.38;;;10.93;93.78
3428;BME280;1727;42.624;23.406;2023-05-11T07:28:53;95225.88;;;11.10;97.15
3428;BME280;1727;42.624;23.406;2023-05-11T07:31:20;95227.03;;;11.17;95.26
3428;BME280;1727;42.624;23.406;2023-05-11T07:33:46;95232.44;;;11.05;91.68
3428;BME280;1727;42.624;23.406;2023-05-11T07:36:13;95231.13;;;11.10;91.61
3428;BME280;1727;42.624;23.406;2023-05-11T07:38:40;95236.50;;;10.98;91.33
3428;BME280;1727;42.624;23.406;2023-05-11T07:41:08;95232.00;;;11.00;90.86
3428;BME280;1727;42.624;23.406;2023-05-11T08:00:37;95238.16;;;11.42;87.83
3428;BME280;1727;42.624;23.406;2023-05-11T08:03:04;95242.00;;;11.38;87.88
3428;BME280;1727;42.624;23.406;2023-05-11T08:05:31;95247.81;;;11.41;86.40
3428;BME280;1727;42.624;23.406;2023-05-11T08:08:01;95235.47;;;11.32;87.55
3428;BME280;1727;42.624;23.406;2023-05-11T08:10:28;95246.09;;;11.31;87.94
3428;BME280;1727;42.624;23.406;2023-05-11T08:12:55;95255.91;;;11.17;85.12
3428;BME280;1727;42.624;23.406;2023-05-11T08:15:22;95244.56;;;11.28;87.75
3428;BME280;1727;42.624;23.406;2023-05-11T08:17:50;95246.28;;;11.39;90.11
3428;BME280;1727;42.624;23.406;2023-05-11T08:20:17;95245.19;;;11.41;88.27
3428;BME280;1727;42.624;23.406;2023-05-11T08:22:44;95248.41;;;11.45;84.96
3428;BME280;1727;42.624;23.406;2023-05-11T08:25:11;95239.63;;;11.56;86.02
3428;BME280;1727;42.624;23.406;2023-05-11T08:27:39;95237.13;;;11.33;82.83
3428;BME280;1727;42.624;23.406;2023-05-11T08:30:06;95242.38;;;11.54;86.53
3428;BME280;1727;42.624;23.406;2023-05-11T08:32:34;95241.66;;;11.52;84.66
3428;BME280;1727;42.624;23.406;2023-05-11T08:35:03;95239.97;;;11.62;88.21
3428;BME280;1727;42.624;23.406;2023-05-11T08:37:29;95243.59;;;11.50;84.26
3428;BME280;1727;42.624;23.406;2023-05-11T08:39:56;95243.75;;;11.69;85.43
3428;BME280;1727;42.624;23.406;2023-05-11T08:42:24;95257.25;;;11.44;84.00
3428;BME280;1727;42.624;23.406;2023-05-11T08:44:54;95242.53;;;11.21;85.83
3428;BME280;1727;42.624;23.406;2023-05-11T08:47:22;95231.47;;;11.38;86.05
3428;BME280;1727;42.624;23.406;2023-05-11T08:49:49;95249.78;;;11.60;86.70
3428;BME280;1727;42.624;23.406;2023-05-11T08:52:18;95243.22;;;11.75;88.28
3428;BME280;1727;42.624;23.406;2023-05-11T08:54:45;95241.16;;;11.37;86.04
3428;BME280;1727;42.624;23.406;2023-05-11T08:57:13;95233.09;;;10.86;86.57
3428;BME280;1727;42.624;23.406;2023-05-11T08:59:40;95227.19;;;10.73;87.91
3428;BME280;1727;42.624;23.406;2023-05-11T09:02:09;95229.25;;;10.90;89.45
3428;BME280;1727;42.624;23.406;2023-05-11T09:04:39;95213.94;;;10.74;89.26
3428;BME280;1727;42.624;23.406;2023-05-11T09:07:06;95225.88;;;10.56;91.14
3428;BME280;1727;42.624;23.406;2023-05-11T09:09:35;95218.47;;;10.61;91.98
3428;BME280;1727;42.624;23.406;2023-05-11T09:12:02;95224.06;;;10.68;90.20
3428;BME280;1727;42.624;23.406;2023-05-11T09:14:29;95214.06;;;10.73;90.58
3428;BME280;1727;42.624;23.406;2023-05-11T09:16:56;95228.31;;;10.91;92.12
3428;BME280;1727;42.624;23.406;2023-05-11T09:19:23;95221.06;;;10.83;90.46
3428;BME280;1727;42.624;23.406;2023-05-11T09:21:51;95226.34;;;10.72;91.08
3428;BME280;1727;42.624;23.406;2023-05-11T09:24:19;95220.78;;;10.43;92.14
3428;BME280;1727;42.624;23.406;2023-05-11T09:26:47;95214.63;;;10.65;92.42
3428;BME280;1727;42.624;23.406;2023-05-11T09:29:18;95210.88;;;10.47;92.62
3428;BME280;1727;42.624;23.406;2023-05-11T09:31:45;95218.50;;;10.50;92.16
3428;BME280;1727;42.624;23.406;2023-05-11T09:34:14;95213.97;;;10.52;93.28
3428;BME280;1727;42.624;23.406;2023-05-11T09:36:41;95215.97;;;10.60;94.81
3428;BME280;1727;42.624;23.406;2023-05-11T09:39:08;95228.72;;;10.75;95.47
3428;BME280;1727;42.624;23.406;2023-05-11T09:41:35;95230.22;;;11.00;93.64
3428;BME280;1727;42.624;23.406;2023-05-11T09:44:07;95229.97;;;10.92;91.56
3428;BME280;1727;42.624;23.406;2023-05-11T09:46:38;95233.41;;;11.04;92.12
3428;BME280;1727;42.624;23.406;2023-05-11T09:49:28;95215.69;;;11.17;91.78
3428;BME280;1727;42.624;23.406;2023-05-11T09:51:59;95215.16;;;11.34;91.31
3428;BME280;1727;42.624;23.406;2023-05-11T09:54:26;95215.91;;;11.46;90.61
3428;BME280;1727;42.624;23.406;2023-05-11T09:56:53;95207.16;;;11.57;91.27
3428;BME280;1727;42.624;23.406;2023-05-11T09:59:40;95218.59;;;11.56;88.36
3428;BME280;1727;42.624;23.406;2023-05-11T10:02:18;95206.25;;;11.67;92.29
3428;BME280;1727;42.624;23.406;2023-05-11T10:04:45;95200.31;;;11.86;90.20
3428;BME280;1727;42.624;23.406;2023-05-11T10:07:22;95213.50;;;11.96;87.63
3428;BME280;1727;42.624;23.406;2023-05-11T10:09:50;95208.91;;;11.77;86.74
3428;BME280;1727;42.624;23.406;2023-05-11T10:12:20;95199.84;;;11.81;85.59
3428;BME280;1727;42.624;23.406;2023-05-11T10:14:51;95197.31;;;12.00;88.01
3428;BME280;1727;42.624;23.406;2023-05-11T10:17:18;95198.94;;;12.22;87.73
3428;BME280;1727;42.624;23.406;2023-05-11T10:19:46;95196.91;;;12.35;87.69
3428;BME280;1727;42.624;23.406;2023-05-11T10:22:14;95200.19;;;12.18;85.62
3428;BME280;1727;42.624;23.406;2023-05-11T10:24:41;95192.03;;;12.31;86.15
3428;BME280;1727;42.624;23.406;2023-05-11T10:27:09;95181.41;;;12.42;86.44
3428;BME280;1727;42.624;23.406;2023-05-11T10:29:36;95189.88;;;12.46;84.26
3428;BME280;1727;42.624;23.406;2023-05-11T10:32:05;95178.75;;;12.32;83.99
3428;BME280;1727;42.624;23.406;2023-05-11T10:34:33;95177.69;;;12.45;84.12
3428;BME280;1727;42.624;23.406;2023-05-11T10:37:00;95172.03;;;12.59;83.28
3428;BME280;1727;42.624;23.406;2023-05-11T10:39:28;95170.09;;;12.70;83.85
3428;BME280;1727;42.624;23.406;2023-05-11T10:42:05;95169.44;;;12.78;82.98
3428;BME280;1727;42.624;23.406;2023-05-11T10:44:49;95171.81;;;12.91;83.03
3428;BME280;1727;42.624;23.406;2023-05-11T10:47:36;95165.72;;;12.90;81.74
3428;BME280;1727;42.624;23.406;2023-05-11T10:50:16;95179.72;;;12.91;81.85
3428;BME280;1727;42.624;23.406;2023-05-11T10:53:00;95171.13;;;12.98;83.63
3428;BME280;1727;42.624;23.406;2023-05-11T10:55:43;95170.31;;;13.08;81.43
3428;BME280;1727;42.624;23.406;2023-05-11T10:58:14;95168.66;;;13.07;79.87
3428;BME280;1727;42.624;23.406;2023-05-11T11:03:54;95160.31;;;13.11;80.66
3428;BME280;1727;42.624;23.406;2023-05-11T11:06:21;95160.06;;;13.24;81.52
3428;BME280;1727;42.624;23.406;2023-05-11T11:08:57;95159.78;;;13.17;80.18
3428;BME280;1727;42.624;23.406;2023-05-11T11:11:29;95170.88;;;13.21;80.34
3428;BME280;1727;42.624;23.406;2023-05-11T11:13:56;95171.56;;;13.23;80.03
3428;BME280;1727;42.624;23.406;2023-05-11T11:16:25;95170.31;;;13.27;80.05
3428;BME280;1727;42.624;23.406;2023-05-11T11:19:36;95163.09;;;13.29;78.88
3428;BME280;1727;42.624;23.406;2023-05-11T11:22:04;95165.31;;;13.24;80.62
3428;BME280;1727;42.624;23.406;2023-05-11T11:24:44;95170.91;;;13.30;79.23
3428;BME280;1727;42.624;23.406;2023-05-11T11:27:11;95164.38;;;13.35;78.98
3428;BME280;1727;42.624;23.406;2023-05-11T11:29:39;95160.47;;;13.29;79.03
3428;BME280;1727;42.624;23.406;2023-05-11T11:32:24;95150.75;;;13.49;80.20
3428;BME280;1727;42.624;23.406;2023-05-11T11:34:54;95150.47;;;13.61;79.25
3428;BME280;1727;42.624;23.406;2023-05-11T11:37:21;95158.59;;;13.78;78.93
3428;BME280;1727;42.624;23.406;2023-05-11T11:39:52;95154.81;;;13.90;77.52
3428;BME280;1727;42.624;23.406;2023-05-11T11:42:35;95144.31;;;14.08;77.74
3428;BME280;1727;42.624;23.406;2023-05-11T11:45:26;95151.84;;;14.03;76.81
3428;BME280;1727;42.624;23.406;2023-05-11T11:48:07;95143.97;;;13.93;77.07
3428;BME280;1727;42.624;23.406;2023-05-11T11:50:35;95157.22;;;13.74;76.87
3428;BME280;1727;42.624;23.406;2023-05-11T11:53:02;95153.16;;;13.89;77.75
3428;BME280;1727;42.624;23.406;2023-05-11T11:55:49;95148.56;;;13.91;76.87
3428;BME280;1727;42.624;23.406;2023-05-11T12:01:21;95148.00;;;13.97;77.54
3428;BME280;1727;42.624;23.406;2023-05-11T12:03:57;95148.25;;;14.04;77.18
3428;BME280;1727;42.624;23.406;2023-05-11T12:06:40;95151.41;;;14.07;77.26
3428;BME280;1727;42.624;23.406;2023-05-11T12:09:09;95153.75;;;14.10;77.07
3428;BME280;1727;42.624;23.406;2023-05-11T12:11:36;95150.81;;;14.13;77.19
3428;BME280;1727;42.624;23.406;2023-05-11T12:14:03;95146.03;;;13.99;76.87
3428;BME280;1727;42.624;23.406;2023-05-11T12:16:30;95142.47;;;13.81;77.20
3428;BME280;1727;42.624;23.406;2023-05-11T12:18:58;95148.44;;;13.92;78.74
3428;BME280;1727;42.624;23.406;2023-05-11T12:21:29;95148.53;;;14.01;77.18
3428;BME280;1727;42.624;23.406;2023-05-11T12:23:59;95138.81;;;14.01;76.15
3428;BME280;1727;42.624;23.406;2023-05-11T12:26:27;95135.13;;;14.12;78.76
3428;BME280;1727;42.624;23.406;2023-05-11T12:29:05;95123.03;;;14.19;75.07
3428;BME280;1727;42.624;23.406;2023-05-11T12:31:34;95115.38;;;14.25;75.24
3428;BME280;1727;42.624;23.406;2023-05-11T12:34:01;95127.06;;;14.23;75.00
3428;BME280;1727;42.624;23.406;2023-05-11T12:36:28;95122.84;;;14.30;75.68
3428;BME280;1727;42.624;23.406;2023-05-11T12:38:57;95127.06;;;14.13;74.86
3428;BME280;1727;42.624;23.406;2023-05-11T12:41:24;95112.13;;;14.04;77.06
3428;BME280;1727;42.624;23.406;2023-05-11T12:43:52;95107.81;;;14.03;76.92
3428;BME280;1727;42.624;23.406;2023-05-11T12:46:20;95113.25;;;14.02;77.22
3428;BME280;1727;42.624;23.406;2023-05-11T12:48:49;95114.91;;;14.03;76.18
3428;BME280;1727;42.624;23.406;2023-05-11T12:51:46;95105.78;;;13.97;76.49
3428;BME280;1727;42.624;23.406;2023-05-11T12:54:26;95102.56;;;14.03;76.90
3428;BME280;1727;42.624;23.406;2023-05-11T12:56:53;95093.44;;;14.15;76.92
3428;BME280;1727;42.624;23.406;2023-05-11T12:59:27;95093.75;;;14.12;75.93
3428;BME280;1727;42.624;23.406;2023-05-11T13:02:10;95089.72;;;14.18;77.03
3428;BME280;1727;42.624;23.406;2023-05-11T13:04:39;95091.53;;;14.17;76.04
3428;BME280;1727;42.624;23.406;2023-05-11T13:07:07;95089.44;;;14.11;75.16
3428;BME280;1727;42.624;23.406;2023-05-11T13:09:35;95084.47;;;14.08;75.59
3428;BME280;1727;42.624;23.406;2023-05-11T13:12:16;95093.75;;;14.12;76.00
3428;BME280;1727;42.624;23.406;2023-05-11T13:14:44;95075.69;;;14.17;77.02
3428;BME280;1727;42.624;23.406;2023-05-11T13:17:11;95089.50;;;14.29;76.91
3428;BME280;1727;42.624;23.406;2023-05-11T13:19:38;95090.03;;;14.33;74.90
3428;BME280;1727;42.624;23.406;2023-05-11T13:22:05;95084.16;;;14.39;75.54
3428;BME280;1727;42.624;23.406;2023-05-11T13:24:32;95078.03;;;14.38;76.12
3428;BME280;1727;42.624;23.406;2023-05-11T13:27:00;95072.25;;;14.35;74.69
3428;BME280;1727;42.624;23.406;2023-05-11T13:29:27;95077.66;;;14.33;74.50
3428;BME280;1727;42.624;23.406;2023-05-11T13:31:54;95080.91;;;14.27;74.96
3428;BME280;1727;42.624;23.406;2023-05-11T13:34:21;95084.00;;;14.22;75.23
3428;BME280;1727;42.624;23.406;2023-05-11T13:36:48;95087.63;;;14.12;74.78
3428;BME280;1727;42.624;23.406;2023-05-11T13:39:15;95072.63;;;14.12;76.17
3428;BME280;1727;42.624;23.406;2023-05-11T13:41:42;95076.22;;;13.93;75.07
3428;BME280;1727;42.624;23.406;2023-05-11T13:44:10;95067.50;;;13.83;75.39
3428;BME280;1727;42.624;23.406;2023-05-11T13:46:37;95074.44;;;13.84;76.35
3428;BME280;1727;42.624;23.406;2023-05-11T13:49:04;95075.69;;;13.80;76.47
3428;BME280;1727;42.624;23.406;2023-05-11T13:51:31;95066.38;;;13.86;76.82
3428;BME280;1727;42.624;23.406;2023-05-11T13:53:59;95059.34;;;13.77;77.04
3428;BME280;1727;42.624;23.406;2023-05-11T13:56:27;95073.59;;;13.84;77.86
3428;BME280;1727;42.624;23.406;2023-05-11T13:58:53;95065.13;;;13.90;77.88
3428;BME280;1727;42.624;23.406;2023-05-11T14:01:22;95067.72;;;14.00;77.67
3428;BME280;1727;42.624;23.406;2023-05-11T14:03:54;95064.63;;;14.04;76.44